sensor_id;sensor_type;location;lat;lon;timestamp;temperature;humidity
69387;SHT31;56575;48.942;8.404;2023-05-07T00:01:47;16.16;70.39
69387;SHT31;56575;48.942;8.404;2023-05-07T00:04:12;16.19;70.03
69387;SHT31;56575;48.942;8.404;2023-05-07T00:06:39;16.19;69.88
69387;SHT31;56575;48.942;8.404;2023-05-07T00:09:05;16.14;70.44
69387;SHT31;56575;48.942;8.404;2023-05-07T00:11:30;16.12;70.06
69387;SHT31;56575;48.942;8.404;2023-05-07T00:13:56;16.05;70.50
69387;SHT31;56575;48.942;8.404;2023-05-07T00:16:21;16.02;70.43
69387;SHT31;56575;48.942;8.404;2023-05-07T00:18:47;15.96;70.70
69387;SHT31;56575;48.942;8.404;2023-05-07T00:21:12;15.91;71.17
69387;SHT31;56575;48.942;8.404;2023-05-07T00:23:38;15.89;71.31
69387;SHT31;56575;48.942;8.404;2023-05-07T00:26:03;15.88;71.65
69387;SHT31;56575;48.942;8.404;2023-05-07T00:28:29;15.81;71.58
69387;SHT31;56575;48.942;8.404;2023-05-07T00:30:54;15.75;71.73
69387;SHT31;56575;48.942;8.404;2023-05-07T00:33:20;15.71;72.19
69387;SHT31;56575;48.942;8.404;2023-05-07T00:35:46;15.67;71.76
69387;SHT31;56575;48.942;8.404;2023-05-07T00:38:11;15.64;72.04
69387;SHT31;56575;48.942;8.404;2023-05-07T00:40:37;15.64;71.76
69387;SHT31;56575;48.942;8.404;2023-05-07T00:43:02;15.65;71.52
69387;SHT31;56575;48.942;8.404;2023-05-07T00:45:28;15.64;71.54
69387;SHT31;56575;48.942;8.404;2023-05-07T00:47:59;15.61;72.01
69387;SHT31;56575;48.942;8.404;2023-05-07T00:50:26;15.67;71.54
69387;SHT31;56575;48.942;8.404;2023-05-07T00:52:53;15.62;71.72
69387;SHT31;56575;48.942;8.404;2023-05-07T00:55:18;15.61;71.58
69387;SHT31;56575;48.942;8.404;2023-05-07T00:57:44;15.55;71.92
69387;SHT31;56575;48.942;8.404;2023-05-07T01:00:10;15.54;71.83
69387;SHT31;56575;48.942;8.404;2023-05-07T01:02:38;15.50;71.96
69387;SHT31;56575;48.942;8.404;2023-05-07T01:05:05;15.46;71.75
69387;SHT31;56575;48.942;8.404;2023-05-07T01:07:32;15.50;71.83
69387;SHT31;56575;48.942;8.404;2023-05-07T01:09:59;15.50;71.73
69387;SHT31;56575;48.942;8.404;2023-05-07T01:12:25;15.51;72.11
69387;SHT31;56575;48.942;8.404;2023-05-07T01:14:52;15.51;72.32
69387;SHT31;56575;48.942;8.404;2023-05-07T01:17:17;15.48;72.29
69387;SHT31;56575;48.942;8.404;2023-05-07T01:19:43;15.47;72.56
69387;SHT31;56575;48.942;8.404;2023-05-07T01:22:10;15.47;72.90
69387;SHT31;56575;48.942;8.404;2023-05-07T01:24:36;15.40;72.97
69387;SHT31;56575;48.942;8.404;2023-05-07T01:27:02;15.40;73.23
69387;SHT31;56575;48.942;8.404;2023-05-07T01:29:28;15.37;73.05
69387;SHT31;56575;48.942;8.404;2023-05-07T01:31:54;15.37;72.94
69387;SHT31;56575;48.942;8.404;2023-05-07T01:34:21;15.34;72.76
69387;SHT31;56575;48.942;8.404;2023-05-07T01:36:47;15.29;73.07
69387;SHT31;56575;48.942;8.404;2023-05-07T01:39:14;15.29;73.42
69387;SHT31;56575;48.942;8.404;2023-05-07T01:41:41;15.24;73.80
69387;SHT31;56575;48.942;8.404;2023-05-07T01:44:08;15.23;73.67
69387;SHT31;56575;48.942;8.404;2023-05-07T01:46:35;15.23;73.37
69387;SHT31;56575;48.942;8.404;2023-05-07T01:49:00;15.20;73.31
69387;SHT31;56575;48.942;8.404;2023-05-07T01:51:26;15.12;73.35
69387;SHT31;56575;48.942;8.404;2023-05-07T01:53:52;15.09;73.34
69387;SHT31;56575;48.942;8.404;2023-05-07T01:56:18;15.06;73.44
69387;SHT31;56575;48.942;8.404;2023-05-07T01:58:45;15.07;73.38
69387;SHT31;56575;48.942;8.404;2023-05-07T02:01:14;15.06;73.80
69387;SHT31;56575;48.942;8.404;2023-05-07T02:03:40;15.06;73.49
69387;SHT31;56575;48.942;8.404;2023-05-07T02:06:05;15.07;74.08
69387;SHT31;56575;48.942;8.404;2023-05-07T02:08:30;15.04;73.80
69387;SHT31;56575;48.942;8.404;2023-05-07T02:10:56;15.02;74.07
69387;SHT31;56575;48.942;8.404;2023-05-07T02:13:21;14.93;73.97
69387;SHT31;56575;48.942;8.404;2023-05-07T02:15:47;14.86;74.14
69387;SHT31;56575;48.942;8.404;2023-05-07T02:18:16;14.85;74.15
69387;SHT31;56575;48.942;8.404;2023-05-07T02:20:42;14.82;74.04
69387;SHT31;56575;48.942;8.404;2023-05-07T02:23:07;14.81;74.16
69387;SHT31;56575;48.942;8.404;2023-05-07T02:25:33;14.78;74.01
69387;SHT31;56575;48.942;8.404;2023-05-07T02:27:58;14.61;74.52
69387;SHT31;56575;48.942;8.404;2023-05-07T02:30:24;14.67;74.77
69387;SHT31;56575;48.942;8.404;2023-05-07T02:32:50;14.68;75.08
69387;SHT31;56575;48.942;8.404;2023-05-07T02:35:15;14.67;75.19
69387;SHT31;56575;48.942;8.404;2023-05-07T02:37:41;14.67;75.59
69387;SHT31;56575;48.942;8.404;2023-05-07T02:40:06;14.63;75.79
69387;SHT31;56575;48.942;8.404;2023-05-07T02:42:32;14.68;75.78
69387;SHT31;56575;48.942;8.404;2023-05-07T02:44:57;14.64;75.76
69387;SHT31;56575;48.942;8.404;2023-05-07T02:47:23;14.58;75.09
69387;SHT31;56575;48.942;8.404;2023-05-07T02:49:48;14.48;75.59
69387;SHT31;56575;48.942;8.404;2023-05-07T02:52:13;14.38;75.74
69387;SHT31;56575;48.942;8.404;2023-05-07T02:54:39;14.33;76.04
69387;SHT31;56575;48.942;8.404;2023-05-07T02:57:04;14.31;76.19
69387;SHT31;56575;48.942;8.404;2023-05-07T02:59:30;14.29;76.31
69387;SHT31;56575;48.942;8.404;2023-05-07T03:01:55;14.21;76.71
69387;SHT31;56575;48.942;8.404;2023-05-07T03:04:20;14.27;76.63
69387;SHT31;56575;48.942;8.404;2023-05-07T03:06:46;14.24;76.67
69387;SHT31;56575;48.942;8.404;2023-05-07T03:09:11;14.23;76.36
69387;SHT31;56575;48.942;8.404;2023-05-07T03:11:37;14.24;76.52
69387;SHT31;56575;48.942;8.404;2023-05-07T03:14:02;14.27;76.73
69387;SHT31;56575;48.942;8.404;2023-05-07T03:16:28;14.26;76.23
69387;SHT31;56575;48.942;8.404;2023-05-07T03:18:53;14.23;76.27
69387;SHT31;56575;48.942;8.404;2023-05-07T03:21:18;14.24;76.25
69387;SHT31;56575;48.942;8.404;2023-05-07T03:23:44;14.26;76.24
69387;SHT31;56575;48.942;8.404;2023-05-07T03:26:10;14.31;76.03
69387;SHT31;56575;48.942;8.404;2023-05-07T03:28:35;14.36;76.12
69387;SHT31;56575;48.942;8.404;2023-05-07T03:31:00;14.37;75.41
69387;SHT31;56575;48.942;8.404;2023-05-07T03:33:26;14.40;75.32
69387;SHT31;56575;48.942;8.404;2023-05-07T03:35:52;14.45;75.57
69387;SHT31;56575;48.942;8.404;2023-05-07T03:38:18;14.45;75.62
69387;SHT31;56575;48.942;8.404;2023-05-07T03:40:43;14.51;75.78
69387;SHT31;56575;48.942;8.404;2023-05-07T03:43:08;14.48;75.43
69387;SHT31;56575;48.942;8.404;2023-05-07T03:45:35;14.44;75.23
69387;SHT31;56575;48.942;8.404;2023-05-07T03:48:00;14.38;75.54
69387;SHT31;56575;48.942;8.404;2023-05-07T03:50:25;14.30;75.73
69387;SHT31;56575;48.942;8.404;2023-05-07T03:52:51;14.26;75.90
69387;SHT31;56575;48.942;8.404;2023-05-07T03:55:16;14.23;76.22
69387;SHT31;56575;48.942;8.404;2023-05-07T03:57:42;14.16;76.46
69387;SHT31;56575;48.942;8.404;2023-05-07T04:00:07;14.12;76.30
69387;SHT31;56575;48.942;8.404;2023-05-07T04:02:33;14.09;76.46
69387;SHT31;56575;48.942;8.404;2023-05-07T04:04:58;14.08;76.53
69387;SHT31;56575;48.942;8.404;2023-05-07T04:07:24;14.12;76.80
69387;SHT31;56575;48.942;8.404;2023-05-07T04:09:49;14.12;76.63
69387;SHT31;56575;48.942;8.404;2023-05-07T04:12:15;14.14;76.51
69387;SHT31;56575;48.942;8.404;2023-05-07T04:14:40;14.14;76.62
69387;SHT31;56575;48.942;8.404;2023-05-07T04:17:06;14.19;77.00
69387;SHT31;56575;48.942;8.404;2023-05-07T04:19:33;14.17;76.65
69387;SHT31;56575;48.942;8.404;2023-05-07T04:21:59;14.21;76.60
69387;SHT31;56575;48.942;8.404;2023-05-07T04:24:24;14.14;76.43
69387;SHT31;56575;48.942;8.404;2023-05-07T04:26:50;14.10;76.84
69387;SHT31;56575;48.942;8.404;2023-05-07T04:29:16;14.02;76.99
69387;SHT31;56575;48.942;8.404;2023-05-07T04:31:42;13.99;77.30
69387;SHT31;56575;48.942;8.404;2023-05-07T04:34:10;13.96;77.29
69387;SHT31;56575;48.942;8.404;2023-05-07T04:36:37;13.90;77.65
69387;SHT31;56575;48.942;8.404;2023-05-07T04:39:03;13.92;77.97
69387;SHT31;56575;48.942;8.404;2023-05-07T04:41:28;13.98;78.36
69387;SHT31;56575;48.942;8.404;2023-05-07T04:43:54;14.05;78.38
69387;SHT31;56575;48.942;8.404;2023-05-07T04:46:19;14.08;78.32
69387;SHT31;56575;48.942;8.404;2023-05-07T04:48:45;14.12;77.91
69387;SHT31;56575;48.942;8.404;2023-05-07T04:51:10;14.16;78.14
69387;SHT31;56575;48.942;8.404;2023-05-07T04:53:37;14.17;77.87
69387;SHT31;56575;48.942;8.404;2023-05-07T04:56:02;14.19;77.40
69387;SHT31;56575;48.942;8.404;2023-05-07T04:58:28;14.16;77.14
69387;SHT31;56575;48.942;8.404;2023-05-07T05:00:57;14.09;77.03
69387;SHT31;56575;48.942;8.404;2023-05-07T05:03:22;14.02;77.43
69387;SHT31;56575;48.942;8.404;2023-05-07T05:05:49;14.05;77.35
69387;SHT31;56575;48.942;8.404;2023-05-07T05:08:14;14.05;77.48
69387;SHT31;56575;48.942;8.404;2023-05-07T05:10:40;13.95;77.67
69387;SHT31;56575;48.942;8.404;2023-05-07T05:13:06;13.96;77.70
69387;SHT31;56575;48.942;8.404;2023-05-07T05:15:32;13.99;77.35
69387;SHT31;56575;48.942;8.404;2023-05-07T05:17:57;14.02;77.65
69387;SHT31;56575;48.942;8.404;2023-05-07T05:20:22;14.06;77.74
69387;SHT31;56575;48.942;8.404;2023-05-07T05:22:48;14.12;77.62
69387;SHT31;56575;48.942;8.404;2023-05-07T05:25:13;14.10;77.50
69387;SHT31;56575;48.942;8.404;2023-05-07T05:27:39;14.23;77.52
69387;SHT31;56575;48.942;8.404;2023-05-07T05:30:05;14.30;77.28
69387;SHT31;56575;48.942;8.404;2023-05-07T05:32:30;14.37;77.12
69387;SHT31;56575;48.942;8.404;2023-05-07T05:34:56;14.42;77.03
69387;SHT31;56575;48.942;8.404;2023-05-07T05:37:21;14.50;77.52
69387;SHT31;56575;48.942;8.404;2023-05-07T05:39:47;14.54;77.08
69387;SHT31;56575;48.942;8.404;2023-05-07T05:42:12;14.71;76.63
69387;SHT31;56575;48.942;8.404;2023-05-07T05:44:37;14.79;76.63
69387;SHT31;56575;48.942;8.404;2023-05-07T05:47:03;14.93;76.82
69387;SHT31;56575;48.942;8.404;2023-05-07T05:49:28;15.04;76.53
69387;SHT31;56575;48.942;8.404;2023-05-07T05:51:53;15.18;76.55
69387;SHT31;56575;48.942;8.404;2023-05-07T05:54:19;15.26;75.97
69387;SHT31;56575;48.942;8.404;2023-05-07T05:56:44;15.37;75.83
69387;SHT31;56575;48.942;8.404;2023-05-07T05:59:10;15.43;75.78
69387;SHT31;56575;48.942;8.404;2023-05-07T06:01:35;15.48;75.49
69387;SHT31;56575;48.942;8.404;2023-05-07T06:04:01;15.54;75.07
69387;SHT31;56575;48.942;8.404;2023-05-07T06:06:26;15.61;74.15
69387;SHT31;56575;48.942;8.404;2023-05-07T06:08:52;15.69;74.40
69387;SHT31;56575;48.942;8.404;2023-05-07T06:11:17;15.77;74.31
69387;SHT31;56575;48.942;8.404;2023-05-07T06:13:43;15.86;74.63
69387;SHT31;56575;48.942;8.404;2023-05-07T06:16:08;15.93;74.84
69387;SHT31;56575;48.942;8.404;2023-05-07T06:18:33;16.03;74.80
69387;SHT31;56575;48.942;8.404;2023-05-07T06:21:01;16.13;73.92
69387;SHT31;56575;48.942;8.404;2023-05-07T06:23:26;16.24;73.61
69387;SHT31;56575;48.942;8.404;2023-05-07T06:25:52;16.37;73.35
69387;SHT31;56575;48.942;8.404;2023-05-07T06:28:17;16.43;72.15
69387;SHT31;56575;48.942;8.404;2023-05-07T06:30:42;16.54;71.85
69387;SHT31;56575;48.942;8.404;2023-05-07T06:33:08;16.67;72.44
69387;SHT31;56575;48.942;8.404;2023-05-07T06:35:33;16.81;72.25
69387;SHT31;56575;48.942;8.404;2023-05-07T06:37:59;17.01;71.71
69387;SHT31;56575;48.942;8.404;2023-05-07T06:40:25;17.13;71.02
69387;SHT31;56575;48.942;8.404;2023-05-07T06:42:50;17.29;71.73
69387;SHT31;56575;48.942;8.404;2023-05-07T06:45:16;17.37;71.34
69387;SHT31;56575;48.942;8.404;2023-05-07T06:47:41;17.41;71.62
69387;SHT31;56575;48.942;8.404;2023-05-07T06:50:07;17.51;71.41
69387;SHT31;56575;48.942;8.404;2023-05-07T06:52:32;17.55;71.24
69387;SHT31;56575;48.942;8.404;2023-05-07T06:54:58;17.58;70.65
69387;SHT31;56575;48.942;8.404;2023-05-07T06:57:24;17.57;71.59
69387;SHT31;56575;48.942;8.404;2023-05-07T06:59:49;17.54;70.70
69387;SHT31;56575;48.942;8.404;2023-05-07T07:02:14;17.58;70.88
69387;SHT31;56575;48.942;8.404;2023-05-07T07:04:40;17.61;71.26
69387;SHT31;56575;48.942;8.404;2023-05-07T07:07:07;17.61;70.94
69387;SHT31;56575;48.942;8.404;2023-05-07T07:09:32;17.70;70.69
69387;SHT31;56575;48.942;8.404;2023-05-07T07:11:57;17.65;70.48
69387;SHT31;56575;48.942;8.404;2023-05-07T07:14:23;17.68;71.14
69387;SHT31;56575;48.942;8.404;2023-05-07T07:16:48;17.31;71.04
69387;SHT31;56575;48.942;8.404;2023-05-07T07:19:14;17.16;71.53
69387;SHT31;56575;48.942;8.404;2023-05-07T07:21:41;17.15;72.57
69387;SHT31;56575;48.942;8.404;2023-05-07T07:24:06;17.20;72.20
69387;SHT31;56575;48.942;8.404;2023-05-07T07:26:31;17.29;71.82
69387;SHT31;56575;48.942;8.404;2023-05-07T07:28:57;17.27;71.58
69387;SHT31;56575;48.942;8.404;2023-05-07T07:31:22;17.27;71.46
69387;SHT31;56575;48.942;8.404;2023-05-07T07:33:47;17.23;71.60
69387;SHT31;56575;48.942;8.404;2023-05-07T07:36:15;17.33;71.43
69387;SHT31;56575;48.942;8.404;2023-05-07T07:38:41;17.40;70.61
69387;SHT31;56575;48.942;8.404;2023-05-07T07:41:08;17.26;71.05
69387;SHT31;56575;48.942;8.404;2023-05-07T07:43:34;17.12;71.46
69387;SHT31;56575;48.942;8.404;2023-05-07T07:46:00;17.19;71.84
69387;SHT31;56575;48.942;8.404;2023-05-07T07:48:26;17.18;71.35
69387;SHT31;56575;48.942;8.404;2023-05-07T07:50:51;17.18;71.75
69387;SHT31;56575;48.942;8.404;2023-05-07T07:53:17;17.34;71.75
69387;SHT31;56575;48.942;8.404;2023-05-07T07:55:42;17.44;71.34
69387;SHT31;56575;48.942;8.404;2023-05-07T07:58:08;17.51;71.38
69387;SHT31;56575;48.942;8.404;2023-05-07T08:00:33;17.53;71.28
69387;SHT31;56575;48.942;8.404;2023-05-07T08:02:58;17.51;71.69
69387;SHT31;56575;48.942;8.404;2023-05-07T08:05:24;17.61;72.38
69387;SHT31;56575;48.942;8.404;2023-05-07T08:07:50;17.73;71.55
69387;SHT31;56575;48.942;8.404;2023-05-07T08:10:18;17.75;71.72
69387;SHT31;56575;48.942;8.404;2023-05-07T08:12:50;17.70;71.55
69387;SHT31;56575;48.942;8.404;2023-05-07T08:15:16;17.79;72.03
69387;SHT31;56575;48.942;8.404;2023-05-07T08:17:41;17.91;71.25
69387;SHT31;56575;48.942;8.404;2023-05-07T08:20:07;17.99;71.32
69387;SHT31;56575;48.942;8.404;2023-05-07T08:22:36;17.95;71.35
69387;SHT31;56575;48.942;8.404;2023-05-07T08:25:02;17.78;71.56
69387;SHT31;56575;48.942;8.404;2023-05-07T08:27:28;17.86;71.33
69387;SHT31;56575;48.942;8.404;2023-05-07T08:29:53;17.95;71.46
69387;SHT31;56575;48.942;8.404;2023-05-07T08:32:19;18.03;71.20
69387;SHT31;56575;48.942;8.404;2023-05-07T08:34:44;17.95;71.44
69387;SHT31;56575;48.942;8.404;2023-05-07T08:37:10;18.06;71.16
69387;SHT31;56575;48.942;8.404;2023-05-07T08:39:35;18.16;71.83
69387;SHT31;56575;48.942;8.404;2023-05-07T08:42:01;18.26;71.22
69387;SHT31;56575;48.942;8.404;2023-05-07T08:44:33;18.43;71.54
69387;SHT31;56575;48.942;8.404;2023-05-07T08:47:00;18.61;70.33
69387;SHT31;56575;48.942;8.404;2023-05-07T08:49:27;18.79;69.93
69387;SHT31;56575;48.942;8.404;2023-05-07T08:51:53;18.87;69.09
69387;SHT31;56575;48.942;8.404;2023-05-07T08:54:18;18.98;68.74
69387;SHT31;56575;48.942;8.404;2023-05-07T08:56:45;19.18;68.54
69387;SHT31;56575;48.942;8.404;2023-05-07T08:59:11;19.34;67.73
69387;SHT31;56575;48.942;8.404;2023-05-07T09:01:36;19.71;67.67
69387;SHT31;56575;48.942;8.404;2023-05-07T09:04:02;19.68;66.92
69387;SHT31;56575;48.942;8.404;2023-05-07T09:06:27;20.01;66.51
69387;SHT31;56575;48.942;8.404;2023-05-07T09:08:54;20.23;65.64
69387;SHT31;56575;48.942;8.404;2023-05-07T09:11:23;20.32;65.62
69387;SHT31;56575;48.942;8.404;2023-05-07T09:13:53;20.64;63.72
69387;SHT31;56575;48.942;8.404;2023-05-07T09:16:20;20.94;63.29
69387;SHT31;56575;48.942;8.404;2023-05-07T09:18:46;21.09;62.63
69387;SHT31;56575;48.942;8.404;2023-05-07T09:21:16;21.05;62.82
69387;SHT31;56575;48.942;8.404;2023-05-07T09:23:42;21.60;61.60
69387;SHT31;56575;48.942;8.404;2023-05-07T09:26:07;22.11;60.43
69387;SHT31;56575;48.942;8.404;2023-05-07T09:28:43;21.99;59.64
69387;SHT31;56575;48.942;8.404;2023-05-07T09:31:09;22.26;60.53
69387;SHT31;56575;48.942;8.404;2023-05-07T09:33:34;22.20;58.31
69387;SHT31;56575;48.942;8.404;2023-05-07T09:36:04;22.50;58.92
69387;SHT31;56575;48.942;8.404;2023-05-07T09:38:30;22.53;57.07
69387;SHT31;56575;48.942;8.404;2023-05-07T09:41:09;22.28;56.04
69387;SHT31;56575;48.942;8.404;2023-05-07T09:43:36;22.80;56.72
69387;SHT31;56575;48.942;8.404;2023-05-07T09:46:05;23.00;55.70
69387;SHT31;56575;48.942;8.404;2023-05-07T09:48:32;23.33;54.65
69387;SHT31;56575;48.942;8.404;2023-05-07T09:51:02;23.70;53.17
69387;SHT31;56575;48.942;8.404;2023-05-07T09:53:30;24.01;52.83
69387;SHT31;56575;48.942;8.404;2023-05-07T09:55:56;24.52;52.72
69387;SHT31;56575;48.942;8.404;2023-05-07T09:58:22;24.74;52.95
69387;SHT31;56575;48.942;8.404;2023-05-07T10:00:49;24.95;50.39
69387;SHT31;56575;48.942;8.404;2023-05-07T10:03:15;25.29;50.49
69387;SHT31;56575;48.942;8.404;2023-05-07T10:05:42;25.34;50.08
69387;SHT31;56575;48.942;8.404;2023-05-07T10:08:09;25.73;49.67
69387;SHT31;56575;48.942;8.404;2023-05-07T10:10:35;26.20;51.18
69387;SHT31;56575;48.942;8.404;2023-05-07T10:13:01;26.46;48.92
69387;SHT31;56575;48.942;8.404;2023-05-07T10:15:28;26.64;47.45
69387;SHT31;56575;48.942;8.404;2023-05-07T10:17:55;26.14;48.54
69387;SHT31;56575;48.942;8.404;2023-05-07T10:20:21;26.82;47.47
69387;SHT31;56575;48.942;8.404;2023-05-07T10:22:47;26.35;47.39
69387;SHT31;56575;48.942;8.404;2023-05-07T10:25:20;26.78;48.57
69387;SHT31;56575;48.942;8.404;2023-05-07T10:27:47;27.58;48.61
69387;SHT31;56575;48.942;8.404;2023-05-07T10:32:53;28.15;44.63
69387;SHT31;56575;48.942;8.404;2023-05-07T10:35:26;27.37;44.70
69387;SHT31;56575;48.942;8.404;2023-05-07T10:37:52;27.14;45.55
69387;SHT31;56575;48.942;8.404;2023-05-07T10:40:20;27.25;45.90
69387;SHT31;56575;48.942;8.404;2023-05-07T10:45:21;26.18;47.47
69387;SHT31;56575;48.942;8.404;2023-05-07T10:48:05;25.67;47.70
69387;SHT31;56575;48.942;8.404;2023-05-07T10:50:31;26.05;47.76
69387;SHT31;56575;48.942;8.404;2023-05-07T10:58:44;28.34;43.28
69387;SHT31;56575;48.942;8.404;2023-05-07T11:01:10;29.11;42.12
69387;SHT31;56575;48.942;8.404;2023-05-07T11:04:13;29.63;41.69
69387;SHT31;56575;48.942;8.404;2023-05-07T11:06:39;30.28;38.67
69387;SHT31;56575;48.942;8.404;2023-05-07T11:09:05;29.55;40.36
69387;SHT31;56575;48.942;8.404;2023-05-07T11:11:49;30.27;39.37
69387;SHT31;56575;48.942;8.404;2023-05-07T11:14:43;30.24;38.82
69387;SHT31;56575;48.942;8.404;2023-05-07T11:17:09;29.97;38.69
69387;SHT31;56575;48.942;8.404;2023-05-07T11:19:55;30.30;40.87
69387;SHT31;56575;48.942;8.404;2023-05-07T11:25:03;30.28;38.89
69387;SHT31;56575;48.942;8.404;2023-05-07T11:27:29;30.13;38.80
69387;SHT31;56575;48.942;8.404;2023-05-07T11:29:55;30.14;38.19
69387;SHT31;56575;48.942;8.404;2023-05-07T11:32:24;29.85;38.89
69387;SHT31;56575;48.942;8.404;2023-05-07T11:34:57;29.30;40.63
69387;SHT31;56575;48.942;8.404;2023-05-07T11:37:24;29.99;39.80
69387;SHT31;56575;48.942;8.404;2023-05-07T11:39:50;29.63;39.59
69387;SHT31;56575;48.942;8.404;2023-05-07T11:42:34;29.42;40.68
69387;SHT31;56575;48.942;8.404;2023-05-07T11:45:01;29.97;39.15
69387;SHT31;56575;48.942;8.404;2023-05-07T11:47:30;30.42;39.19
69387;SHT31;56575;48.942;8.404;2023-05-07T11:49:56;31.20;37.93
69387;SHT31;56575;48.942;8.404;2023-05-07T11:52:23;30.48;38.96
69387;SHT31;56575;48.942;8.404;2023-05-07T11:54:49;30.12;40.14
69387;SHT31;56575;48.942;8.404;2023-05-07T11:57:15;30.02;40.52
69387;SHT31;56575;48.942;8.404;2023-05-07T11:59:41;29.45;39.79
69387;SHT31;56575;48.942;8.404;2023-05-07T12:02:07;28.83;41.05
69387;SHT31;56575;48.942;8.404;2023-05-07T12:04:33;28.58;41.63
69387;SHT31;56575;48.942;8.404;2023-05-07T12:06:58;28.25;42.17
69387;SHT31;56575;48.942;8.404;2023-05-07T12:09:24;27.87;42.97
69387;SHT31;56575;48.942;8.404;2023-05-07T12:11:51;28.68;41.82
69387;SHT31;56575;48.942;8.404;2023-05-07T12:14:17;28.45;42.27
69387;SHT31;56575;48.942;8.404;2023-05-07T12:16:43;28.01;43.00
69387;SHT31;56575;48.942;8.404;2023-05-07T12:19:10;28.35;42.52
69387;SHT31;56575;48.942;8.404;2023-05-07T12:21:37;27.80;42.37
69387;SHT31;56575;48.942;8.404;2023-05-07T12:24:03;28.38;42.30
69387;SHT31;56575;48.942;8.404;2023-05-07T12:26:29;28.68;41.98
69387;SHT31;56575;48.942;8.404;2023-05-07T12:28:54;28.68;41.36
69387;SHT31;56575;48.942;8.404;2023-05-07T12:31:20;28.42;41.96
69387;SHT31;56575;48.942;8.404;2023-05-07T12:33:45;27.74;43.74
69387;SHT31;56575;48.942;8.404;2023-05-07T12:36:12;27.06;45.02
69387;SHT31;56575;48.942;8.404;2023-05-07T12:38:39;27.35;44.72
69387;SHT31;56575;48.942;8.404;2023-05-07T12:42:05;27.32;44.70
69387;SHT31;56575;48.942;8.404;2023-05-07T12:44:15;27.60;44.66
69387;SHT31;56575;48.942;8.404;2023-05-07T12:46:41;27.87;43.64
69387;SHT31;56575;48.942;8.404;2023-05-07T12:49:06;27.79;42.82
69387;SHT31;56575;48.942;8.404;2023-05-07T12:51:37;27.89;42.42
69387;SHT31;56575;48.942;8.404;2023-05-07T12:54:02;27.45;44.06
69387;SHT31;56575;48.942;8.404;2023-05-07T12:56:35;27.00;44.87
69387;SHT31;56575;48.942;8.404;2023-05-07T12:59:01;26.66;45.10
69387;SHT31;56575;48.942;8.404;2023-05-07T13:01:30;26.26;44.91
69387;SHT31;56575;48.942;8.404;2023-05-07T13:04:04;26.24;46.67
69387;SHT31;56575;48.942;8.404;2023-05-07T13:06:30;26.14;46.80
69387;SHT31;56575;48.942;8.404;2023-05-07T13:08:56;25.73;46.74
69387;SHT31;56575;48.942;8.404;2023-05-07T13:11:22;25.90;46.65
69387;SHT31;56575;48.942;8.404;2023-05-07T13:13:48;26.25;46.55
69387;SHT31;56575;48.942;8.404;2023-05-07T13:16:13;26.60;46.84
69387;SHT31;56575;48.942;8.404;2023-05-07T13:18:40;27.11;46.17
69387;SHT31;56575;48.942;8.404;2023-05-07T13:21:05;27.15;44.07
69387;SHT31;56575;48.942;8.404;2023-05-07T13:23:31;27.41;45.40
69387;SHT31;56575;48.942;8.404;2023-05-07T13:26:02;26.84;46.12
69387;SHT31;56575;48.942;8.404;2023-05-07T13:28:31;27.08;46.68
69387;SHT31;56575;48.942;8.404;2023-05-07T13:31:02;26.69;46.62
69387;SHT31;56575;48.942;8.404;2023-05-07T13:33:32;26.94;46.30
69387;SHT31;56575;48.942;8.404;2023-05-07T13:35:57;26.41;46.02
69387;SHT31;56575;48.942;8.404;2023-05-07T13:38:24;26.48;46.69
69387;SHT31;56575;48.942;8.404;2023-05-07T13:40:49;26.21;47.87
69387;SHT31;56575;48.942;8.404;2023-05-07T13:43:15;25.67;48.57
69387;SHT31;56575;48.942;8.404;2023-05-07T13:45:42;25.58;49.65
69387;SHT31;56575;48.942;8.404;2023-05-07T13:48:08;25.47;50.19
69387;SHT31;56575;48.942;8.404;2023-05-07T13:50:39;25.50;49.70
69387;SHT31;56575;48.942;8.404;2023-05-07T13:53:04;25.54;49.68
69387;SHT31;56575;48.942;8.404;2023-05-07T13:55:30;25.69;50.01
69387;SHT31;56575;48.942;8.404;2023-05-07T13:57:57;25.31;51.39
69387;SHT31;56575;48.942;8.404;2023-05-07T14:00:26;24.79;52.13
69387;SHT31;56575;48.942;8.404;2023-05-07T14:02:53;24.62;52.29
69387;SHT31;56575;48.942;8.404;2023-05-07T14:05:19;24.62;51.71
69387;SHT31;56575;48.942;8.404;2023-05-07T14:07:44;24.86;51.47
69387;SHT31;56575;48.942;8.404;2023-05-07T14:10:10;24.69;50.63
69387;SHT31;56575;48.942;8.404;2023-05-07T14:12:36;24.88;48.42
69387;SHT31;56575;48.942;8.404;2023-05-07T14:15:01;24.88;42.47
69387;SHT31;56575;48.942;8.404;2023-05-07T14:20:03;24.95;42.10
69387;SHT31;56575;48.942;8.404;2023-05-07T14:22:34;25.03;41.74
69387;SHT31;56575;48.942;8.404;2023-05-07T14:25:00;24.95;42.40
69387;SHT31;56575;48.942;8.404;2023-05-07T14:27:25;24.95;42.92
69387;SHT31;56575;48.942;8.404;2023-05-07T14:29:51;24.55;43.67
69387;SHT31;56575;48.942;8.404;2023-05-07T14:32:19;24.56;44.71
69387;SHT31;56575;48.942;8.404;2023-05-07T14:34:45;24.59;44.68
69387;SHT31;56575;48.942;8.404;2023-05-07T14:37:12;24.66;44.95
69387;SHT31;56575;48.942;8.404;2023-05-07T14:39:38;24.77;44.49
69387;SHT31;56575;48.942;8.404;2023-05-07T14:42:04;24.87;44.71
69387;SHT31;56575;48.942;8.404;2023-05-07T14:44:29;24.92;44.42
69387;SHT31;56575;48.942;8.404;2023-05-07T14:46:55;24.94;44.23
69387;SHT31;56575;48.942;8.404;2023-05-07T14:49:20;24.63;44.87
69387;SHT31;56575;48.942;8.404;2023-05-07T14:51:46;24.86;45.57
69387;SHT31;56575;48.942;8.404;2023-05-07T14:54:13;24.76;45.45
69387;SHT31;56575;48.942;8.404;2023-05-07T14:56:39;24.46;46.09
69387;SHT31;56575;48.942;8.404;2023-05-07T14:59:05;24.32;46.14
69387;SHT31;56575;48.942;8.404;2023-05-07T15:01:30;24.21;47.36
69387;SHT31;56575;48.942;8.404;2023-05-07T15:03:55;24.49;47.28
69387;SHT31;56575;48.942;8.404;2023-05-07T15:06:21;24.55;47.06
69387;SHT31;56575;48.942;8.404;2023-05-07T15:09:02;24.45;46.53
69387;SHT31;56575;48.942;8.404;2023-05-07T15:11:31;24.26;46.90
69387;SHT31;56575;48.942;8.404;2023-05-07T15:13:56;24.17;48.26
69387;SHT31;56575;48.942;8.404;2023-05-07T15:16:22;24.02;47.92
69387;SHT31;56575;48.942;8.404;2023-05-07T15:18:48;24.04;47.96
69387;SHT31;56575;48.942;8.404;2023-05-07T15:21:13;24.07;48.43
69387;SHT31;56575;48.942;8.404;2023-05-07T15:23:39;24.01;48.59
69387;SHT31;56575;48.942;8.404;2023-05-07T15:32:12;23.73;49.31
69387;SHT31;56575;48.942;8.404;2023-05-07T15:34:38;23.64;50.09
69387;SHT31;56575;48.942;8.404;2023-05-07T15:37:04;23.59;50.93
69387;SHT31;56575;48.942;8.404;2023-05-07T15:39:30;23.41;50.74
69387;SHT31;56575;48.942;8.404;2023-05-07T15:41:56;23.38;51.13
69387;SHT31;56575;48.942;8.404;2023-05-07T15:44:21;23.32;51.51
69387;SHT31;56575;48.942;8.404;2023-05-07T15:46:46;23.09;52.35
69387;SHT31;56575;48.942;8.404;2023-05-07T15:49:12;23.12;52.57